Time;durP1;ratioP1;P1;durP2;ratioP2;P2;SDS_P1;SDS_P2;PMS_P1;PMS_P2;Temp;Humidity;BMP_temperature;BMP_pressure;BME280_temperature;BME280_humidity;BME280_pressure;Samples;Min_cycle;Max_cycle;Signal;HPM_P1;HPM_P2
2021/01/24 00:03:00;;;;;;;9.20;4.00;;;;;;;3.48;82.94;99641.13;6140111;29;20220;-74
2021/01/24 00:06:04;;;;;;;11.13;3.77;;;;;;;3.55;82.78;99642.00;6147888;28;20930;-72
2021/01/24 00:09:08;;;;;;;10.13;4.37;;;;;;;3.60;82.58;99638.69;6139243;28;20205;-71
2021/01/24 00:12:11;;;;;;;18.30;4.60;;;;;;;3.58;82.69;99641.59;6147702;28;20197;-75
2021/01/24 00:15:16;;;;;;;9.97;4.10;;;;;;;3.62;81.81;99632.06;6135247;28;20218;-73
2021/01/24 00:18:19;;;;;;;15.20;4.50;;;;;;;3.56;82.44;99632.03;6134184;28;20216;-73
2021/01/24 00:21:23;;;;;;;9.50;3.60;;;;;;;3.50;82.07;99628.28;6139670;28;20201;-72
2021/01/24 00:24:27;;;;;;;10.87;3.80;;;;;;;3.54;82.26;99629.56;6132395;29;20217;-72
2021/01/24 00:27:30;;;;;;;10.40;4.03;;;;;;;3.62;81.36;99637.44;6134722;28;20376;-73
2021/01/24 00:30:34;;;;;;;14.17;3.67;;;;;;;3.68;81.28;99636.66;6150106;28;20417;-73
2021/01/24 00:33:38;;;;;;;10.00;3.90;;;;;;;3.64;81.61;99616.53;6138490;29;20533;-72
2021/01/24 00:36:41;;;;;;;6.73;4.10;;;;;;;3.35;82.78;99630.28;6139051;28;20226;-74
2021/01/24 00:39:44;;;;;;;14.67;4.80;;;;;;;3.36;83.56;99617.63;6146138;28;20229;-71
2021/01/24 00:42:48;;;;;;;7.13;3.57;;;;;;;3.40;83.81;99617.03;6143065;29;20238;-73
2021/01/24 00:45:51;;;;;;;9.37;4.10;;;;;;;3.41;83.74;99613.31;6137966;29;20226;-71
2021/01/24 00:48:55;;;;;;;14.53;4.13;;;;;;;3.43;83.47;99605.84;6143240;29;20206;-73
2021/01/24 00:51:59;;;;;;;11.83;4.00;;;;;;;3.47;83.25;99596.31;6141295;29;20661;-74
2021/01/24 00:55:02;;;;;;;15.53;4.40;;;;;;;3.37;83.64;99593.16;6124714;29;20213;-72
2021/01/24 00:58:07;;;;;;;6.13;3.60;;;;;;;3.46;84.01;99600.06;6139053;29;20206;-72
2021/01/24 01:01:11;;;;;;;15.47;4.17;;;;;;;3.27;85.22;99611.56;6141464;29;20334;-74
2021/01/24 01:04:15;;;;;;;20.90;5.10;;;;;;;3.28;84.32;99618.63;6141994;29;20224;-72
2021/01/24 01:07:18;;;;;;;7.37;4.00;;;;;;;3.11;85.78;99612.72;6138692;28;20569;-72
2021/01/24 01:10:22;;;;;;;16.87;4.30;;;;;;;3.18;84.72;99623.56;6128923;29;20229;-73
2021/01/24 01:13:25;;;;;;;13.40;4.10;;;;;;;2.96;86.42;99609.31;6123953;29;20621;-72
2021/01/24 01:16:28;;;;;;;14.03;4.07;;;;;;;3.16;86.10;99617.50;6127076;29;20209;-72
2021/01/24 01:19:33;;;;;;;13.87;4.10;;;;;;;3.21;85.78;99631.22;6142124;28;21735;-74
2021/01/24 01:22:36;;;;;;;16.53;3.97;;;;;;;3.36;84.28;99621.19;6140270;29;20188;-73
2021/01/24 01:25:39;;;;;;;10.60;4.13;;;;;;;3.38;84.01;99608.31;6140097;29;20213;-71
2021/01/24 01:28:43;;;;;;;11.30;4.17;;;;;;;3.19;84.86;99592.88;6128521;29;20577;-73
2021/01/24 01:31:46;;;;;;;13.50;4.50;;;;;;;3.05;85.72;99597.38;6135966;28;20278;-73
2021/01/24 01:34:50;;;;;;;16.20;4.43;;;;;;;3.05;85.75;99601.94;6140611;28;20211;-73
2021/01/24 01:37:53;;;;;;;23.10;4.93;;;;;;;3.14;85.37;99606.13;6145937;28;20245;-72
2021/01/24 01:40:56;;;;;;;13.30;4.57;;;;;;;3.12;85.47;99614.41;6145295;28;20345;-72
2021/01/24 01:44:01;;;;;;;12.73;4.33;;;;;;;3.05;85.35;99618.09;6133050;29;20224;-73
2021/01/24 01:47:05;;;;;;;14.23;3.87;;;;;;;3.24;84.71;99617.34;6127493;29;20677;-72
2021/01/24 01:50:11;;;;;;;11.20;4.63;;;;;;;3.29;84.38;99612.19;6139424;29;20338;-75
2021/01/24 01:53:16;;;;;;;11.07;4.67;;;;;;;3.31;84.35;99612.84;6132226;29;20704;-73
2021/01/24 01:56:19;;;;;;;13.80;4.43;;;;;;;3.13;84.88;99604.47;6140169;29;20720;-75
2021/01/24 01:59:23;;;;;;;8.50;4.00;;;;;;;3.17;85.54;99606.56;6129754;28;20208;-75
2021/01/24 02:02:39;;;;;;;13.73;4.10;;;;;;;3.24;85.33;99598.50;6138036;28;20713;-73
2021/01/24 02:05:59;;;;;;;9.73;4.37;;;;;;;3.28;85.10;99602.47;6144795;28;20211;-73
2021/01/24 02:09:08;;;;;;;14.07;4.17;;;;;;;3.30;84.38;99604.94;6111787;29;20201;-73
2021/01/24 02:12:17;;;;;;;10.73;4.10;;;;;;;3.34;84.25;99609.72;6138170;28;20630;-72
2021/01/24 02:15:21;;;;;;;12.23;4.53;;;;;;;3.17;84.51;99611.09;6141437;28;20206;-71
2021/01/24 02:18:25;;;;;;;15.20;4.00;;;;;;;2.96;85.83;99620.09;6138815;29;20216;-72
2021/01/24 02:21:33;;;;;;;13.07;4.33;;;;;;;2.84;87.12;99628.94;6135184;28;20187;-72
2021/01/24 02:24:43;;;;;;;12.47;4.57;;;;;;;2.96;86.73;99608.50;6138893;29;20264;-73
2021/01/24 02:27:50;;;;;;;6.37;4.03;;;;;;;3.08;86.10;99606.94;6134974;28;20209;-71
2021/01/24 02:30:55;;;;;;;11.17;4.43;;;;;;;3.22;85.56;99614.03;6149670;28;20210;-71
2021/01/24 02:34:00;;;;;;;9.60;3.90;;;;;;;3.24;85.68;99600.34;6129326;29;20194;-71
2021/01/24 02:37:05;;;;;;;14.70;4.13;;;;;;;3.15;85.58;99607.78;6125500;29;20232;-72
2021/01/24 02:40:10;;;;;;;12.43;4.00;;;;;;;2.87;87.02;99607.00;6149000;28;20195;-73
2021/01/24 02:43:15;;;;;;;13.47;4.70;;;;;;;3.14;85.71;99611.50;6147646;29;20246;-72
2021/01/24 02:46:21;;;;;;;15.47;4.93;;;;;;;3.26;85.89;99607.25;6138263;28;20217;-72
2021/01/24 02:49:28;;;;;;;12.67;4.60;;;;;;;3.28;85.67;99609.72;6124791;29;20196;-71
2021/01/24 02:52:32;;;;;;;20.93;5.40;;;;;;;3.29;84.41;99614.09;6125969;29;20677;-72
2021/01/24 02:55:36;;;;;;;11.27;4.13;;;;;;;3.29;84.21;99614.91;6147769;29;20205;-72
2021/01/24 02:58:41;;;;;;;19.23;4.97;;;;;;;3.30;85.84;99610.34;6137190;29;20594;-73
2021/01/24 03:01:46;;;;;;;17.37;4.33;;;;;;;3.30;85.89;99616.56;6124273;29;20328;-71
2021/01/24 03:04:49;;;;;;;11.57;4.47;;;;;;;3.30;85.82;99611.19;6138741;29;20250;-72
2021/01/24 03:07:54;;;;;;;11.17;4.67;;;;;;;3.26;85.60;99615.31;6146735;28;20209;-72
2021/01/24 03:10:57;;;;;;;9.97;4.10;;;;;;;3.18;86.43;99618.97;6162705;28;20200;-71
2021/01/24 03:14:07;;;;;;;16.87;4.47;;;;;;;3.16;85.31;99614.81;6153391;28;20202;-71
2021/01/24 03:17:16;;;;;;;11.43;4.20;;;;;;;3.21;85.37;99612.34;6159831;28;20206;-70
2021/01/24 03:20:20;;;;;;;13.70;4.70;;;;;;;2.93;86.30;99615.09;6166813;28;20206;-75
2021/01/24 03:23:24;;;;;;;11.47;5.17;;;;;;;2.42;89.49;99622.59;6142153;28;20214;-75
2021/01/24 03:26:28;;;;;;;13.40;4.83;;;;;;;2.02;91.69;99634.03;6142879;29;20255;-73
2021/01/24 03:29:31;;;;;;;12.10;4.63;;;;;;;2.05;94.06;99620.19;6153796;28;20213;-72
2021/01/24 03:32:35;;;;;;;14.10;5.27;;;;;;;2.49;91.23;99628.06;6149214;28;20197;-72
2021/01/24 03:35:39;;;;;;;18.10;5.10;;;;;;;2.52;90.72;99639.25;6137535;28;20211;-71
2021/01/24 03:38:42;;;;;;;16.20;4.83;;;;;;;1.96;92.49;99632.09;6133845;28;20216;-72
2021/01/24 03:41:45;;;;;;;12.73;4.70;;;;;;;1.90;93.26;99632.84;6136381;28;20228;-72
2021/01/24 03:44:49;;;;;;;22.90;6.00;;;;;;;2.13;92.96;99633.50;6139864;28;20208;-72
2021/01/24 03:47:53;;;;;;;15.17;5.67;;;;;;;2.02;92.68;99635.88;6136817;28;20190;-71
2021/01/24 03:50:56;;;;;;;22.00;5.80;;;;;;;1.98;92.18;99640.78;6132979;28;20294;-73
2021/01/24 03:53:59;;;;;;;22.87;6.17;;;;;;;2.14;91.45;99645.94;6135771;29;20193;-71
2021/01/24 03:57:02;;;;;;;14.00;5.10;;;;;;;2.37;90.30;99646.56;6128499;28;20286;-74
2021/01/24 04:00:07;;;;;;;12.97;6.17;;;;;;;2.56;89.61;99655.84;6135917;28;20200;-73
2021/01/24 04:03:22;;;;;;;14.27;4.77;;;;;;;2.25;90.82;99650.81;6134433;28;20227;-73
2021/01/24 04:06:26;;;;;;;11.73;4.73;;;;;;;2.56;89.95;99649.63;6143866;28;20318;-74
2021/01/24 04:09:29;;;;;;;11.80;4.80;;;;;;;2.78;87.85;99649.41;6142018;29;20662;-75
2021/01/24 04:12:33;;;;;;;17.90;5.50;;;;;;;2.80;87.47;99631.16;6135900;29;20260;-73
2021/01/24 04:15:36;;;;;;;11.87;4.77;;;;;;;2.56;88.89;99638.88;6141082;28;20235;-73
2021/01/24 04:18:40;;;;;;;21.23;5.60;;;;;;;2.24;90.26;99634.84;6124876;29;20200;-72
2021/01/24 04:21:43;;;;;;;17.27;5.80;;;;;;;2.20;91.31;99629.03;6132417;29;20641;-72
2021/01/24 04:24:47;;;;;;;16.17;5.57;;;;;;;1.95;92.61;99641.19;6132970;29;20535;-72
2021/01/24 04:27:50;;;;;;;19.77;5.40;;;;;;;1.80;93.18;99637.69;6130152;29;20577;-74
2021/01/24 04:30:53;;;;;;;19.43;5.70;;;;;;;2.13;92.41;99632.69;6126054;29;20200;-72
2021/01/24 04:33:57;;;;;;;21.17;5.37;;;;;;;2.29;91.54;99633.25;6139916;28;20203;-76
2021/01/24 04:37:00;;;;;;;17.23;4.43;;;;;;;2.10;91.10;99633.06;6147265;28;20262;-72
2021/01/24 04:40:05;;;;;;;16.77;4.67;;;;;;;1.93;92.24;99632.47;6138332;29;20199;-72
2021/01/24 04:43:11;;;;;;;16.57;5.80;;;;;;;1.72;93.47;99629.75;6136934;29;20236;-72
2021/01/24 04:46:14;;;;;;;16.00;5.63;;;;;;;1.73;94.19;99626.03;6127434;29;20239;-73
2021/01/24 04:49:21;;;;;;;17.33;5.17;;;;;;;1.79;93.71;99619.91;6130277;28;20289;-72
2021/01/24 04:52:25;;;;;;;16.80;5.10;;;;;;;2.02;91.87;99627.78;6136598;28;20517;-72
2021/01/24 04:55:29;;;;;;;11.47;4.73;;;;;;;2.23;90.42;99634.03;6139096;29;20210;-71
2021/01/24 04:58:33;;;;;;;8.33;4.33;;;;;;;2.19;90.59;99638.13;6130663;29;20258;-75
2021/01/24 05:01:39;;;;;;;13.60;4.57;;;;;;;2.19;90.02;99627.34;6128282;29;20255;-72
2021/01/24 05:04:44;;;;;;;18.40;4.40;;;;;;;2.04;90.88;99626.59;6139691;28;20197;-75
2021/01/24 05:07:51;;;;;;;14.40;4.30;;;;;;;2.05;90.87;99625.56;6128238;29;20448;-73
2021/01/24 05:10:55;;;;;;;18.77;4.60;;;;;;;1.91;91.68;99626.44;6137943;29;20184;-72
2021/01/24 05:14:13;;;;;;;15.93;5.20;;;;;;;2.00;90.86;99628.00;6139183;28;20203;-74
2021/01/24 05:17:17;;;;;;;17.20;4.90;;;;;;;1.62;92.03;99631.88;6132594;29;20657;-75
2021/01/24 05:20:23;;;;;;;14.50;4.97;;;;;;;1.82;93.02;99630.28;6134512;29;20755;-72
2021/01/24 05:23:27;;;;;;;20.73;4.83;;;;;;;2.13;90.28;99625.41;6141998;29;20611;-71
2021/01/24 05:26:30;;;;;;;19.97;4.90;;;;;;;1.64;91.97;99616.44;6139561;29;20238;-76
2021/01/24 05:29:37;;;;;;;13.63;5.00;;;;;;;1.63;92.61;99620.97;6149212;28;20213;-72
2021/01/24 05:32:44;;;;;;;18.17;5.37;;;;;;;1.96;91.43;99610.56;6145954;28;20209;-72
2021/01/24 05:35:50;;;;;;;10.50;4.50;;;;;;;2.22;89.58;99618.91;6142426;29;20207;-75
2021/01/24 05:38:54;;;;;;;12.90;4.40;;;;;;;2.30;88.88;99621.47;6144328;28;20219;-72
2021/01/24 05:41:59;;;;;;;17.00;5.13;;;;;;;2.33;88.40;99637.22;6145353;28;20319;-72
2021/01/24 05:45:08;;;;;;;12.67;4.63;;;;;;;2.26;88.03;99636.31;6133083;29;20233;-73
2021/01/24 05:48:15;;;;;;;16.23;4.70;;;;;;;2.00;88.81;99628.00;6135370;29;20192;-75
2021/01/24 05:51:20;;;;;;;10.63;4.10;;;;;;;1.66;91.02;99631.34;6141080;29;20211;-71
2021/01/24 05:54:38;;;;;;;14.10;4.60;;;;;;;2.00;89.30;99622.63;6141388;29;20206;-73
2021/01/24 05:57:42;;;;;;;9.87;4.57;;;;;;;1.86;89.48;99637.78;6137124;29;20689;-73
2021/01/24 06:00:48;;;;;;;11.47;4.67;;;;;;;1.78;89.89;99639.75;6143820;29;20791;-72
2021/01/24 06:03:53;;;;;;;11.07;4.43;;;;;;;1.73;90.29;99648.38;6137484;29;20227;-71
2021/01/24 06:06:57;;;;;;;9.97;4.60;;;;;;;1.59;90.52;99656.47;6138298;28;20231;-74
2021/01/24 06:10:01;;;;;;;16.83;4.03;;;;;;;1.82;89.60;99658.00;6138697;28;20209;-73
2021/01/24 06:13:06;;;;;;;15.87;4.53;;;;;;;1.64;90.60;99665.66;6140140;28;20214;-73
2021/01/24 06:16:13;;;;;;;6.73;4.20;;;;;;;1.88;89.10;99662.63;6137921;29;20332;-73
2021/01/24 06:19:21;;;;;;;9.23;3.83;;;;;;;2.00;88.40;99656.75;6143807;29;20287;-72
2021/01/24 06:22:32;;;;;;;11.13;3.87;;;;;;;1.67;89.06;99669.81;6138881;28;20201;-72
2021/01/24 06:25:38;;;;;;;5.27;3.90;;;;;;;1.77;89.37;99664.97;6131513;29;20711;-72
2021/01/24 06:28:44;;;;;;;12.03;4.20;;;;;;;1.95;88.27;99668.09;6133314;28;20201;-71
2021/01/24 06:31:48;;;;;;;7.80;3.73;;;;;;;2.00;87.89;99681.81;6140341;29;20192;-71
2021/01/24 06:34:53;;;;;;;10.07;3.90;;;;;;;2.03;87.68;99673.31;6144406;28;20273;-72
2021/01/24 06:38:00;;;;;;;9.73;3.50;;;;;;;1.95;87.89;99668.09;6142216;28;20279;-73
2021/01/24 06:41:06;;;;;;;14.20;4.10;;;;;;;1.99;87.61;99674.75;6134206;29;20192;-72
2021/01/24 06:44:36;;;;;;;18.03;3.87;;;;;;;1.89;88.06;99675.06;6139358;29;20233;-72
2021/01/24 06:47:41;;;;;;;10.50;3.53;;;;;;;1.99;87.84;99679.28;6134175;28;20227;-71
2021/01/24 06:50:48;;;;;;;11.80;3.50;;;;;;;1.91;87.86;99682.91;6143998;28;20211;-72
2021/01/24 06:53:52;;;;;;;11.30;3.70;;;;;;;1.79;88.33;99695.19;6136298;29;20199;-73
2021/01/24 06:57:07;;;;;;;12.70;3.77;;;;;;;1.88;88.14;99694.06;6131397;29;20326;-72
2021/01/24 07:00:17;;;;;;;9.07;3.60;;;;;;;1.81;88.38;99709.28;6136877;29;20196;-72
2021/01/24 07:03:23;;;;;;;13.90;4.00;;;;;;;1.90;88.07;99713.53;6134929;29;20620;-70
2021/01/24 07:06:37;;;;;;;13.13;3.57;;;;;;;1.88;88.07;99704.81;6130898;29;20240;-70
2021/01/24 07:09:43;;;;;;;9.63;3.80;;;;;;;1.86;88.24;99706.88;6119302;29;20195;-71
2021/01/24 07:12:46;;;;;;;15.43;3.77;;;;;;;1.90;88.25;99713.53;6141310;29;20193;-71
2021/01/24 07:15:52;;;;;;;13.93;3.97;;;;;;;1.89;87.98;99719.94;6139036;28;20332;-72
2021/01/24 07:18:56;;;;;;;12.53;3.50;;;;;;;1.88;87.87;99720.94;6134244;29;20243;-72
2021/01/24 07:22:04;;;;;;;9.73;3.50;;;;;;;1.75;88.46;99726.16;6144304;28;20257;-75
2021/01/24 07:25:10;;;;;;;9.33;3.30;;;;;;;1.84;88.20;99722.34;6136681;29;20211;-73
2021/01/24 07:28:16;;;;;;;11.67;3.17;;;;;;;1.82;88.52;99721.72;6136812;29;20607;-72
2021/01/24 07:31:19;;;;;;;5.87;3.40;;;;;;;1.87;88.13;99741.63;6137582;28;20558;-73
2021/01/24 07:34:25;;;;;;;9.90;3.77;;;;;;;1.83;88.27;99728.75;6134440;29;20237;-72
2021/01/24 07:37:31;;;;;;;10.13;3.30;;;;;;;1.83;88.00;99742.19;6124032;29;20751;-71
2021/01/24 07:40:35;;;;;;;11.23;3.57;;;;;;;1.58;88.43;99730.06;6134472;29;20242;-73
2021/01/24 07:43:38;;;;;;;11.07;3.33;;;;;;;1.48;89.42;99751.03;6130345;29;20273;-78
2021/01/24 07:46:42;;;;;;;8.57;3.53;;;;;;;1.62;89.10;99747.50;6142441;29;20216;-71
2021/01/24 07:49:45;;;;;;;6.70;3.63;;;;;;;1.62;89.29;99747.50;6132874;29;20214;-74
2021/01/24 07:52:51;;;;;;;11.33;3.27;;;;;;;1.62;88.94;99742.94;6132345;29;20796;-71
2021/01/24 07:55:55;;;;;;;10.20;3.60;;;;;;;1.69;88.44;99753.81;6139119;28;20237;-71
2021/01/24 07:58:59;;;;;;;13.10;3.27;;;;;;;1.75;88.29;99758.44;6138686;28;20189;-71
2021/01/24 08:02:03;;;;;;;10.77;3.33;;;;;;;1.71;88.51;99765.22;6139467;28;20196;-71
2021/01/24 08:05:10;;;;;;;7.17;3.20;;;;;;;1.58;89.11;99763.19;6138115;29;20276;-74
2021/01/24 08:08:15;;;;;;;6.30;3.50;;;;;;;1.70;88.92;99760.84;6141953;28;20215;-74
2021/01/24 08:11:19;;;;;;;19.17;3.87;;;;;;;1.68;88.91;99758.34;6138933;28;20188;-71
2021/01/24 08:14:23;;;;;;;12.53;2.97;;;;;;;1.70;88.61;99761.69;6143506;28;20210;-72
2021/01/24 08:17:27;;;;;;;13.27;3.27;;;;;;;1.75;88.36;99759.25;6129738;29;20282;-73
2021/01/24 08:20:31;;;;;;;10.37;3.23;;;;;;;1.70;88.66;99761.69;6137497;28;20196;-70
2021/01/24 08:23:35;;;;;;;8.70;3.57;;;;;;;1.39;88.82;99779.03;6137288;29;20655;-72
2021/01/24 08:26:40;;;;;;;11.73;3.27;;;;;;;0.93;92.78;99776.41;6136719;29;20216;-72
2021/01/24 08:29:43;;;;;;;9.33;3.50;;;;;;;1.10;92.60;99775.28;6135518;29;20207;-72
2021/01/24 08:32:46;;;;;;;9.10;3.67;;;;;;;1.34;91.55;99786.78;6143476;28;20690;-71
2021/01/24 08:35:50;;;;;;;10.03;3.20;;;;;;;1.54;90.39;99788.75;6151270;28;20201;-71
2021/01/24 08:38:56;;;;;;;17.00;3.50;;;;;;;1.66;89.81;99799.88;6138178;28;20286;-72
2021/01/24 08:42:04;;;;;;;10.97;3.17;;;;;;;1.57;90.04;99811.72;6126566;29;20239;-70
2021/01/24 08:45:09;;;;;;;12.23;2.97;;;;;;;1.54;90.35;99804.06;6134713;28;20500;-74
2021/01/24 08:48:15;;;;;;;8.20;2.93;;;;;;;1.53;89.82;99802.38;6139223;29;20222;-72
2021/01/24 08:51:19;;;;;;;12.90;3.90;;;;;;;1.58;90.16;99800.81;6137570;29;20265;-73
2021/01/24 08:54:27;;;;;;;11.17;3.60;;;;;;;1.61;89.56;99799.59;6142864;29;20221;-72
2021/01/24 08:57:33;;;;;;;10.50;3.67;;;;;;;1.70;89.41;99809.25;6148652;28;20213;-72
2021/01/24 09:00:37;;;;;;;4.63;3.40;;;;;;;1.59;89.88;99815.09;6146801;28;20215;-73
2021/01/24 09:03:40;;;;;;;11.53;3.10;;;;;;;1.61;89.78;99810.38;6142459;28;20627;-71
2021/01/24 09:06:59;;;;;;;16.17;3.63;;;;;;;1.70;89.71;99820.00;6146026;28;20222;-72
2021/01/24 09:10:14;;;;;;;9.07;2.70;;;;;;;1.74;89.31;99810.56;6115128;29;20210;-71
2021/01/24 09:13:19;;;;;;;8.30;3.70;;;;;;;1.84;89.58;99819.19;6144745;29;20934;-73
2021/01/24 09:16:22;;;;;;;11.17;3.60;;;;;;;1.79;89.25;99818.91;6152730;28;20214;-71
2021/01/24 09:19:26;;;;;;;14.53;3.37;;;;;;;1.80;88.85;99824.09;6150342;28;20600;-72
2021/01/24 09:22:29;;;;;;;7.10;3.07;;;;;;;1.87;89.08;99826.88;6139764;28;20200;-71
2021/01/24 09:25:32;;;;;;;12.43;3.50;;;;;;;1.57;90.61;99820.63;6152192;28;20590;-73
2021/01/24 09:28:36;;;;;;;7.67;2.97;;;;;;;1.67;90.27;99831.94;6147597;28;20219;-71
2021/01/24 09:31:39;;;;;;;8.83;3.37;;;;;;;1.77;90.30;99831.69;6150833;29;20199;-72
2021/01/24 09:34:43;;;;;;;12.93;3.80;;;;;;;1.61;90.88;99826.50;6135063;29;20255;-77
2021/01/24 09:37:48;;;;;;;5.43;2.90;;;;;;;1.55;90.96;99835.28;6151295;29;20232;-73
2021/01/24 09:41:10;;;;;;;8.87;3.30;;;;;;;1.62;91.13;99828.13;6128250;28;20211;-72
2021/01/24 09:44:14;;;;;;;8.43;3.20;;;;;;;1.56;91.37;99834.28;6147305;28;20280;-75
2021/01/24 09:47:18;;;;;;;8.67;3.87;;;;;;;1.52;91.95;99822.19;6148298;29;20262;-74
2021/01/24 09:50:23;;;;;;;8.73;2.90;;;;;;;1.56;91.45;99826.22;6144838;28;20201;-71
2021/01/24 09:53:26;;;;;;;7.20;3.07;;;;;;;1.75;90.84;99839.09;6128731;29;20188;-72
2021/01/24 09:56:30;;;;;;;6.73;3.43;;;;;;;1.77;90.26;99831.69;6144179;28;20206;-71
2021/01/24 09:59:34;;;;;;;12.23;3.33;;;;;;;1.90;89.76;99842.63;6148537;28;20726;-74
2021/01/24 10:02:38;;;;;;;10.03;3.03;;;;;;;1.82;90.14;99850.81;6137597;28;20207;-73
2021/01/24 10:05:41;;;;;;;12.27;3.70;;;;;;;1.78;91.09;99854.88;6136627;28;20485;-73
2021/01/24 10:08:45;;;;;;;11.47;3.57;;;;;;;1.84;90.37;99854.13;6139514;28;20216;-72
2021/01/24 10:11:48;;;;;;;13.67;3.70;;;;;;;1.75;90.61;99866.00;6132254;28;20577;-70
2021/01/24 10:14:55;;;;;;;10.87;4.10;;;;;;;1.57;91.93;99863.66;6123494;29;20195;-70
2021/01/24 10:17:59;;;;;;;10.10;3.90;;;;;;;1.61;92.19;99864.97;6137603;29;20253;-71
2021/01/24 10:21:03;;;;;;;10.07;4.23;;;;;;;1.39;93.47;99875.78;6132613;29;20285;-71
2021/01/24 10:24:07;;;;;;;11.17;4.13;;;;;;;1.73;92.20;99868.03;6128025;29;20589;-72
2021/01/24 10:27:11;;;;;;;10.40;4.20;;;;;;;1.86;91.64;99873.63;6137026;28;20272;-73
2021/01/24 10:30:27;;;;;;;10.63;4.30;;;;;;;1.84;91.70;99872.97;6124244;29;20219;-72
2021/01/24 10:33:31;;;;;;;16.33;5.00;;;;;;;1.91;91.30;99865.81;6145658;28;20236;-72
2021/01/24 10:36:35;;;;;;;6.33;4.27;;;;;;;1.75;92.70;99869.50;6136622;29;20280;-73
2021/01/24 10:39:38;;;;;;;15.90;4.70;;;;;;;1.87;91.42;99880.69;6131953;29;20200;-73
2021/01/24 10:42:42;;;;;;;13.80;4.40;;;;;;;1.65;92.78;99876.19;6133160;29;20237;-72
2021/01/24 10:45:46;;;;;;;8.77;3.90;;;;;;;1.30;95.79;99887.59;6128310;29;20578;-72
2021/01/24 10:48:50;;;;;;;17.87;5.40;;;;;;;1.63;94.26;99892.50;6132933;29;20222;-71
2021/01/24 10:51:54;;;;;;;14.53;5.17;;;;;;;1.79;93.19;99888.81;6135556;29;20765;-71
2021/01/24 10:54:57;;;;;;;14.80;6.60;;;;;;;1.58;93.88;99889.53;6128591;29;20199;-72
2021/01/24 10:58:01;;;;;;;14.33;5.77;;;;;;;1.74;93.71;99881.31;6128957;29;20207;-73
2021/01/24 11:01:05;;;;;;;13.90;6.10;;;;;;;1.82;92.89;99872.31;6131904;29;20222;-70
2021/01/24 11:04:09;;;;;;;11.00;5.27;;;;;;;1.66;93.88;99873.31;6139880;29;20583;-73
2021/01/24 11:07:13;;;;;;;10.13;5.00;;;;;;;1.48;95.16;99874.66;6116964;29;20237;-73
2021/01/24 11:10:17;;;;;;;10.50;5.73;;;;;;;1.71;94.56;99875.44;6132954;28;20200;-72
2021/01/24 11:13:20;;;;;;;5.53;4.40;;;;;;;1.83;93.79;99864.06;6133607;28;20206;-72
2021/01/24 11:16:28;;;;;;;6.07;4.60;;;;;;;1.92;92.72;99872.88;6121352;29;20700;-72
2021/01/24 18:29:21;;;;;;;6.37;4.47;;;;;;;0.41;92.54;99949.91;6340051;27;20733;-73
2021/01/24 18:32:24;;;;;;;8.37;5.47;;;;;;;0.52;91.51;99949.50;6297032;28;20283;-73
2021/01/24 18:35:28;;;;;;;5.70;5.00;;;;;;;0.46;91.94;99961.75;6307849;28;20192;-72
2021/01/24 18:38:32;;;;;;;9.30;4.60;;;;;;;0.52;92.23;99953.03;6305208;28;20223;-73
2021/01/24 18:41:35;;;;;;;8.17;5.17;;;;;;;0.56;90.82;99948.16;6303252;28;20203;-72
2021/01/24 18:44:39;;;;;;;6.93;4.50;;;;;;;0.72;90.35;99953.41;6297314;28;20665;-73
2021/01/24 18:47:42;;;;;;;13.23;6.03;;;;;;;0.64;90.58;99942.75;6306976;28;20983;-73
2021/01/24 18:50:46;;;;;;;7.47;5.73;;;;;;;0.63;90.28;99952.66;6309851;28;20636;-73
2021/01/24 18:53:49;;;;;;;5.53;4.80;;;;;;;0.76;89.45;99954.75;6297995;28;20220;-73
2021/01/24 18:56:53;;;;;;;5.13;4.60;;;;;;;0.84;89.01;99956.56;6295183;28;20203;-74
2021/01/24 18:59:57;;;;;;;10.00;4.80;;;;;;;0.94;88.69;99952.66;6302937;28;20213;-74
2021/01/24 19:03:00;;;;;;;8.00;4.77;;;;;;;0.86;88.43;99950.00;6314187;28;20198;-74
2021/01/24 19:06:06;;;;;;;7.47;4.30;;;;;;;0.93;88.30;99955.50;6297462;28;20563;-72
2021/01/24 19:09:10;;;;;;;27.23;12.27;;;;;;;1.13;87.57;99957.56;6297287;28;20513;-73
2021/01/24 19:12:13;;;;;;;10.43;4.63;;;;;;;0.90;87.81;99964.75;6301855;28;20197;-72
2021/01/24 19:15:17;;;;;;;5.63;4.30;;;;;;;1.04;87.37;99961.31;6298268;28;20637;-72
2021/01/24 19:18:20;;;;;;;6.90;4.60;;;;;;;0.97;87.26;99957.69;6298790;28;20203;-76
2021/01/24 19:21:27;;;;;;;4.80;4.30;;;;;;;0.83;88.16;99950.34;6291641;28;20676;-73
2021/01/24 19:24:30;;;;;;;5.03;4.10;;;;;;;0.70;88.24;99963.50;6311727;28;20205;-74
2021/01/24 19:27:33;;;;;;;3.90;3.70;;;;;;;0.68;87.48;99946.75;6303189;28;20380;-71
2021/01/24 19:30:38;;;;;;;10.23;4.03;;;;;;;0.85;87.48;99931.41;6307934;28;20197;-73
2021/01/24 19:33:41;;;;;;;5.00;4.37;;;;;;;0.81;87.59;99936.28;6306816;28;20239;-74
2021/01/24 19:36:44;;;;;;;3.87;3.50;;;;;;;0.85;87.54;99940.28;6293309;28;20626;-74
2021/01/24 19:39:48;;;;;;;8.17;4.00;;;;;;;0.69;87.71;99943.06;6299674;28;20561;-70
2021/01/24 19:42:51;;;;;;;7.13;3.60;;;;;;;0.72;88.00;99931.94;6278499;28;20290;-73
2021/01/24 19:46:16;;;;;;;7.43;4.40;;;;;;;0.70;87.60;99933.13;6291288;28;20206;-73
2021/01/24 19:49:35;;;;;;;7.57;4.03;;;;;;;0.75;87.63;99936.97;6277063;28;20254;-72
2021/01/24 19:52:38;;;;;;;7.53;4.10;;;;;;;0.73;87.81;99928.25;6281329;28;22304;-74
2021/01/24 19:55:41;;;;;;;5.83;3.60;;;;;;;0.74;87.12;99924.56;6285136;28;20195;-70
2021/01/24 19:58:45;;;;;;;9.57;4.27;;;;;;;0.73;87.93;99922.88;6279021;28;20292;-71
2021/01/24 20:01:49;;;;;;;7.60;3.63;;;;;;;0.58;88.35;99924.66;6280344;28;20201;-70
2021/01/24 20:04:53;;;;;;;7.20;4.00;;;;;;;0.59;88.49;99926.34;6286643;28;20278;-74
2021/01/24 20:07:56;;;;;;;4.73;4.13;;;;;;;0.73;88.35;99922.88;6272475;28;20521;-71
2021/01/24 20:10:59;;;;;;;7.23;4.37;;;;;;;0.78;87.73;99933.09;6284638;28;20196;-71
2021/01/24 20:14:02;;;;;;;7.17;4.20;;;;;;;0.69;87.75;99920.75;6279746;28;20195;-71
2021/01/24 20:17:07;;;;;;;5.90;3.97;;;;;;;0.64;87.98;99927.47;6271785;28;20622;-71
2021/01/24 20:20:13;;;;;;;5.63;3.57;;;;;;;0.55;88.35;99920.47;6290558;28;20221;-72
2021/01/24 20:23:16;;;;;;;7.40;3.70;;;;;;;0.55;89.32;99930.38;6288285;28;20647;-71
2021/01/24 20:26:20;;;;;;;6.50;4.03;;;;;;;0.53;89.53;99921.66;6297284;28;20194;-72
2021/01/24 20:29:33;;;;;;;8.90;3.90;;;;;;;0.64;89.11;99918.59;6281590;28;20573;-72
2021/01/24 20:32:37;;;;;;;7.40;3.63;;;;;;;0.62;88.65;99909.84;6277765;28;20195;-71
2021/01/24 20:35:41;;;;;;;12.10;4.53;;;;;;;0.56;89.49;99913.25;6282385;28;20605;-71
2021/01/24 20:38:44;;;;;;;8.50;4.50;;;;;;;0.60;89.67;99910.03;6284275;28;20386;-72
2021/01/24 20:41:47;;;;;;;5.50;4.17;;;;;;;0.57;89.42;99913.06;6275085;28;20206;-72
2021/01/24 20:44:50;;;;;;;4.80;4.50;;;;;;;0.61;89.36;99902.84;6277244;28;20209;-71
2021/01/24 20:47:54;;;;;;;5.57;4.10;;;;;;;0.56;89.46;99899.84;6277525;28;20681;-72
2021/01/24 20:51:01;;;;;;;10.00;4.70;;;;;;;0.69;89.14;99904.63;6276837;28;20198;-73
2021/01/24 20:54:05;;;;;;;12.70;4.60;;;;;;;0.70;89.04;99904.44;6274920;28;20201;-72
2021/01/24 20:57:10;;;;;;;6.57;4.10;;;;;;;0.66;89.57;99902.28;6271898;28;20202;-71
2021/01/24 21:00:14;;;;;;;9.93;4.03;;;;;;;0.62;89.62;99899.13;6269976;28;20647;-73
2021/01/24 21:03:21;;;;;;;6.97;3.33;;;;;;;0.76;89.08;99884.13;6275458;28;20199;-73
2021/01/24 21:06:25;;;;;;;8.43;3.60;;;;;;;0.89;88.78;99884.38;6268440;28;20248;-75
2021/01/24 21:09:28;;;;;;;4.97;3.70;;;;;;;0.86;88.26;99890.94;6272036;28;20230;-73
2021/01/24 21:12:31;;;;;;;5.97;3.73;;;;;;;0.63;89.62;99884.69;6275472;28;20194;-75
2021/01/24 21:15:35;;;;;;;3.37;3.03;;;;;;;0.67;88.93;99880.63;6270810;28;20383;-73
2021/01/24 21:18:39;;;;;;;7.93;4.10;;;;;;;0.68;89.22;99860.84;6276453;28;20206;-72
2021/01/24 21:21:42;;;;;;;4.03;3.60;;;;;;;0.75;89.27;99877.91;6272035;28;20713;-72
2021/01/24 21:24:45;;;;;;;7.57;3.17;;;;;;;0.82;89.08;99873.53;6273848;28;20254;-71
2021/01/24 21:27:48;;;;;;;3.50;3.20;;;;;;;0.72;89.22;99878.25;6279097;28;20241;-73
2021/01/24 21:30:51;;;;;;;3.63;3.03;;;;;;;0.64;89.94;99870.28;6281340;28;20801;-72
2021/01/24 21:33:55;;;;;;;5.80;3.43;;;;;;;0.70;89.75;99869.53;6282934;28;20591;-72
2021/01/24 21:36:59;;;;;;;8.90;3.40;;;;;;;0.73;88.88;99862.97;6276099;28;20226;-72
2021/01/24 21:40:02;;;;;;;3.83;3.10;;;;;;;0.79;88.81;99868.50;6276290;28;20272;-72
2021/01/24 21:43:09;;;;;;;7.07;3.00;;;;;;;0.64;89.48;99864.91;6275631;28;20485;-73
2021/01/24 21:46:13;;;;;;;4.10;3.23;;;;;;;0.61;89.90;99868.78;6267786;28;20320;-74